Time;durP1;ratioP1;P1;durP2;ratioP2;P2;SDS_P1;SDS_P2;PMS_P1;PMS_P2;Temp;Humidity;BMP_temperature;BMP_pressure;BME280_temperature;BME280_humidity;BME280_pressure;Samples;Min_cycle;Max_cycle;Signal;HPM_P1;HPM_P2
2024/01/24 00:02:09;;;;;;;10.63;9.80;;;10.50;99.90;;;;;;5095245;28;20464;-81
2024/01/24 00:04:37;;;;;;;10.90;9.90;;;10.50;99.90;;;;;;5096133;28;20537;-80
2024/01/24 00:07:05;;;;;;;10.47;9.67;;;10.50;99.90;;;;;;5096750;28;20448;-79
2024/01/24 00:09:33;;;;;;;10.50;9.50;;;10.60;99.90;;;;;;5095829;28;20456;-82
2024/01/24 00:12:02;;;;;;;10.60;9.70;;;10.60;99.90;;;;;;5096171;28;20467;-81
2024/01/24 00:14:30;;;;;;;12.17;11.07;;;10.70;99.90;;;;;;5096288;28;20464;-80
2024/01/24 00:16:58;;;;;;;11.97;11.03;;;10.70;99.90;;;;;;5096338;28;20765;-81
2024/01/24 00:19:28;;;;;;;11.87;10.77;;;10.70;99.90;;;;;;5097302;28;21035;-80
2024/01/24 00:21:56;;;;;;;10.93;10.00;;;10.80;99.90;;;;;;5095715;28;20500;-80
2024/01/24 00:24:25;;;;;;;11.93;10.93;;;10.80;99.90;;;;;;5097090;28;20532;-79
2024/01/24 00:26:53;;;;;;;12.47;11.37;;;10.80;99.90;;;;;;5096969;28;20929;-79
2024/01/24 00:29:21;;;;;;;15.70;11.20;;;10.90;99.90;;;;;;5096554;28;20436;-81
2024/01/24 00:31:49;;;;;;;10.57;9.67;;;10.90;99.90;;;;;;5096954;28;20462;-79
2024/01/24 00:34:18;;;;;;;11.77;10.57;;;10.90;99.90;;;;;;5096955;28;20497;-82
2024/01/24 00:36:49;;;;;;;11.30;10.40;;;11.00;99.90;;;;;;5097068;28;20490;-82
2024/01/24 00:39:17;;;;;;;11.80;10.90;;;11.00;99.90;;;;;;5096614;28;20441;-81
2024/01/24 00:41:46;;;;;;;11.70;10.70;;;11.00;99.90;;;;;;5097523;28;20460;-82
2024/01/24 00:44:15;;;;;;;12.33;11.33;;;11.10;99.90;;;;;;5096172;28;20448;-82
2024/01/24 00:46:43;;;;;;;12.27;11.07;;;11.10;99.90;;;;;;5095648;28;20856;-83
2024/01/24 00:49:13;;;;;;;11.83;10.80;;;11.10;99.90;;;;;;5095670;28;20855;-81
2024/01/24 00:51:41;;;;;;;11.97;11.00;;;11.20;99.90;;;;;;5095833;28;20460;-82
2024/01/24 00:54:11;;;;;;;12.20;11.20;;;11.20;99.90;;;;;;5095666;28;20444;-83
2024/01/24 00:56:40;;;;;;;11.43;10.43;;;11.20;99.90;;;;;;5095273;28;20491;-81
2024/01/24 00:59:08;;;;;;;12.03;11.07;;;11.20;99.90;;;;;;5095237;28;20452;-81
2024/01/24 01:01:37;;;;;;;12.45;11.35;;;11.30;99.90;;;;;;5094141;28;20454;-83
2024/01/24 01:04:05;;;;;;;11.57;10.37;;;11.30;99.90;;;;;;5095243;28;20655;-80
2024/01/24 01:06:34;;;;;;;11.03;10.13;;;11.40;99.90;;;;;;5094997;28;20514;-81
2024/01/24 01:09:02;;;;;;;11.20;10.30;;;11.40;99.90;;;;;;5096358;28;20519;-82
2024/01/24 01:11:32;;;;;;;11.60;10.70;;;11.40;99.90;;;;;;5096466;28;20469;-81
2024/01/24 01:14:00;;;;;;;11.77;10.77;;;11.50;99.90;;;;;;5095700;28;20440;-82
2024/01/24 01:16:28;;;;;;;11.57;10.47;;;11.50;99.90;;;;;;5096407;28;20465;-82
2024/01/24 01:18:56;;;;;;;11.17;10.17;;;11.50;99.90;;;;;;5095400;28;20861;-81
2024/01/24 01:21:25;;;;;;;11.60;10.70;;;11.50;99.90;;;;;;5094795;28;20821;-80
2024/01/24 01:23:53;;;;;;;12.90;11.70;;;11.60;99.90;;;;;;5094213;28;20510;-78
2024/01/24 01:26:20;;;;;;;12.60;11.70;;;11.60;99.90;;;;;;5094879;28;20476;-80
2024/01/24 01:28:50;;;;;;;11.33;10.33;;;11.60;99.90;;;;;;5094569;28;20491;-83
2024/01/24 01:31:18;;;;;;;11.30;10.40;;;11.60;99.90;;;;;;5094367;28;20452;-82
2024/01/24 01:33:47;;;;;;;12.07;11.03;;;11.60;99.90;;;;;;5094418;28;20497;-81
2024/01/24 01:36:15;;;;;;;10.97;10.00;;;11.70;99.90;;;;;;5094354;28;20490;-79
2024/01/24 01:38:50;;;;;;;10.53;9.63;;;11.70;99.90;;;;;;5094377;28;20444;-78
2024/01/24 01:41:18;;;;;;;10.50;9.60;;;11.80;99.90;;;;;;5096385;28;20544;-80
2024/01/24 01:43:46;;;;;;;10.80;9.90;;;11.80;99.90;;;;;;5094905;28;20448;-81
2024/01/24 01:46:18;;;;;;;10.47;9.37;;;11.80;99.90;;;;;;5094136;28;20517;-82
2024/01/24 01:48:49;;;;;;;9.83;9.03;;;11.80;99.90;;;;;;5095248;28;20451;-80
2024/01/24 01:51:18;;;;;;;11.60;8.87;;;11.80;99.90;;;;;;5094296;28;20436;-82
2024/01/24 01:53:48;;;;;;;9.40;8.60;;;11.80;99.90;;;;;;5094127;28;20477;-81
2024/01/24 01:56:19;;;;;;;9.33;8.53;;;11.90;99.90;;;;;;5096183;28;20468;-82
2024/01/24 01:58:48;;;;;;;9.13;8.33;;;11.90;99.90;;;;;;5094635;28;20925;-81
2024/01/24 02:01:20;;;;;;;8.50;7.80;;;11.90;99.90;;;;;;5093837;28;20444;-81
2024/01/24 02:03:50;;;;;;;8.93;8.13;;;11.90;99.90;;;;;;5094111;28;20438;-82
2024/01/24 02:06:19;;;;;;;8.40;7.70;;;11.90;99.90;;;;;;5094087;28;20447;-81
2024/01/24 02:08:47;;;;;;;7.70;7.10;;;11.90;99.90;;;;;;5093737;28;20455;-82
2024/01/24 02:11:16;;;;;;;7.83;7.17;;;11.90;99.90;;;;;;5095380;28;20489;-79
2024/01/24 02:13:45;;;;;;;6.67;6.07;;;12.00;99.90;;;;;;5093380;28;20495;-81
2024/01/24 02:16:13;;;;;;;6.40;5.90;;;12.00;99.90;;;;;;5093746;28;20541;-82
2024/01/24 02:18:48;;;;;;;7.07;6.37;;;12.00;99.90;;;;;;5093530;28;20440;-80
2024/01/24 02:21:17;;;;;;;6.00;5.27;;;12.00;99.90;;;;;;5094374;28;20762;-79
2024/01/24 02:23:47;;;;;;;5.50;5.00;;;12.10;99.90;;;;;;5094940;28;20433;-79
2024/01/24 02:26:16;;;;;;;5.23;4.73;;;12.10;99.90;;;;;;5097689;28;20456;-81
2024/01/24 02:28:44;;;;;;;5.00;4.60;;;12.10;99.90;;;;;;5097676;28;20471;-80
2024/01/24 02:31:13;;;;;;;4.80;4.30;;;12.20;99.90;;;;;;5097671;28;20503;-80
2024/01/24 02:33:41;;;;;;;4.43;4.00;;;12.20;99.90;;;;;;5097454;28;20475;-80
2024/01/24 02:36:12;;;;;;;4.43;3.90;;;12.20;99.90;;;;;;5097378;28;20511;-81
2024/01/24 02:38:40;;;;;;;4.77;4.33;;;12.20;99.90;;;;;;5097955;28;20440;-80
2024/01/24 02:41:09;;;;;;;3.90;3.60;;;12.30;99.90;;;;;;5097692;28;20509;-79
2024/01/24 02:43:38;;;;;;;3.80;3.37;;;12.30;99.90;;;;;;5097472;28;20483;-81
2024/01/24 02:46:07;;;;;;;4.47;3.43;;;12.30;99.90;;;;;;5097276;28;20515;-78
2024/01/24 02:48:36;;;;;;;3.80;3.37;;;12.30;99.90;;;;;;5098829;28;20507;-79
2024/01/24 02:51:04;;;;;;;3.70;3.40;;;12.30;99.90;;;;;;5099411;28;20448;-80
2024/01/24 02:53:32;;;;;;;2.73;2.53;;;12.30;99.90;;;;;;5098830;28;20452;-79
2024/01/24 02:56:00;;;;;;;3.23;2.70;;;12.30;99.90;;;;;;5098521;28;20464;-79
2024/01/24 02:58:29;;;;;;;2.60;2.00;;;12.40;99.90;;;;;;5098685;28;20957;-78
2024/01/24 03:00:58;;;;;;;1.83;1.70;;;12.40;99.90;;;;;;5099078;28;20458;-81
2024/01/24 03:03:27;;;;;;;2.63;1.70;;;12.40;99.90;;;;;;5100057;28;20463;-80
2024/01/24 03:05:55;;;;;;;2.47;1.90;;;12.40;99.90;;;;;;5099443;28;20459;-81
2024/01/24 03:08:24;;;;;;;2.53;1.90;;;12.40;99.90;;;;;;5098771;28;20515;-82
2024/01/24 03:10:52;;;;;;;3.37;1.30;;;12.40;99.90;;;;;;5099837;28;20840;-78
2024/01/24 03:13:20;;;;;;;2.20;1.07;;;12.40;99.90;;;;;;5099518;28;20971;-83
2024/01/24 03:15:49;;;;;;;2.67;1.20;;;12.40;99.90;;;;;;5098101;28;20448;-80
2024/01/24 03:18:18;;;;;;;2.87;1.40;;;12.40;99.90;;;;;;5099850;28;20441;-81
2024/01/24 03:20:47;;;;;;;1.77;1.13;;;12.40;99.90;;;;;;5099300;28;20456;-80
2024/01/24 03:23:16;;;;;;;1.90;1.37;;;12.40;99.90;;;;;;5098064;28;20836;-80
2024/01/24 03:25:45;;;;;;;2.70;1.40;;;12.30;99.90;;;;;;5098331;28;20459;-81
2024/01/24 03:28:13;;;;;;;1.67;1.03;;;12.30;99.90;;;;;;5098093;28;20436;-81
2024/01/24 03:30:42;;;;;;;1.90;1.03;;;12.30;99.90;;;;;;5097601;28;20861;-81
2024/01/24 03:33:10;;;;;;;2.60;1.30;;;12.30;99.90;;;;;;5097828;28;20464;-80
2024/01/24 03:35:40;;;;;;;3.47;1.10;;;12.30;99.90;;;;;;5096407;28;20829;-78
2024/01/24 03:38:10;;;;;;;2.90;1.40;;;12.30;99.90;;;;;;5099110;28;20555;-82
2024/01/24 03:40:38;;;;;;;3.67;1.73;;;12.20;99.90;;;;;;5096921;28;20868;-78
2024/01/24 03:43:06;;;;;;;4.50;1.60;;;12.20;99.90;;;;;;5098434;28;20455;-79
2024/01/24 03:45:35;;;;;;;3.90;1.50;;;12.20;99.90;;;;;;5096541;28;20901;-77
2024/01/24 03:48:04;;;;;;;5.10;1.80;;;12.20;99.90;;;;;;5097047;28;20559;-78
2024/01/24 03:50:33;;;;;;;6.67;1.53;;;12.20;99.90;;;;;;5097413;28;20542;-77
2024/01/24 03:53:02;;;;;;;4.57;1.33;;;12.20;99.90;;;;;;5097125;28;20526;-80
2024/01/24 03:55:31;;;;;;;5.77;1.90;;;12.20;99.90;;;;;;5097889;28;20456;-79
2024/01/24 03:57:59;;;;;;;4.23;1.80;;;12.20;99.90;;;;;;5097218;28;20471;-79
2024/01/24 04:00:28;;;;;;;3.90;1.63;;;12.20;99.90;;;;;;5099120;28;20464;-79
2024/01/24 04:02:56;;;;;;;4.37;1.90;;;12.20;99.90;;;;;;5096857;28;20465;-80
2024/01/24 04:05:25;;;;;;;4.83;2.10;;;12.20;99.90;;;;;;5097745;28;20853;-80
2024/01/24 04:07:53;;;;;;;5.60;1.60;;;12.20;99.90;;;;;;5098116;28;20424;-80
2024/01/24 04:10:22;;;;;;;5.03;2.13;;;12.20;99.90;;;;;;5096565;28;20538;-79
2024/01/24 04:12:51;;;;;;;5.73;2.40;;;12.20;99.90;;;;;;5097690;28;20452;-78
2024/01/24 04:15:19;;;;;;;6.70;2.30;;;12.20;99.90;;;;;;5097590;28;20810;-76
2024/01/24 04:17:47;;;;;;;5.70;2.20;;;12.20;99.90;;;;;;5095649;28;20464;-77
2024/01/24 04:20:16;;;;;;;7.70;2.70;;;12.20;99.90;;;;;;5094958;28;20440;-78
2024/01/24 04:22:44;;;;;;;7.10;2.63;;;12.20;99.90;;;;;;5096920;28;20504;-77
2024/01/24 04:25:12;;;;;;;8.50;2.37;;;12.10;99.90;;;;;;5097158;28;20497;-77
2024/01/24 04:27:42;;;;;;;6.90;2.50;;;12.10;99.90;;;;;;5096435;28;20537;-78
2024/01/24 04:30:11;;;;;;;8.10;2.90;;;12.10;99.90;;;;;;5096144;28;20493;-79
2024/01/24 04:32:40;;;;;;;8.67;3.50;;;12.10;99.90;;;;;;5096259;28;20563;-78
2024/01/24 04:35:10;;;;;;;7.10;2.87;;;12.10;99.90;;;;;;5097561;28;20801;-78
2024/01/24 04:37:38;;;;;;;8.47;3.20;;;12.10;99.90;;;;;;5096105;28;20559;-78
2024/01/24 04:40:07;;;;;;;9.30;3.77;;;12.10;99.90;;;;;;5096729;28;20444;-77
2024/01/24 04:42:36;;;;;;;10.83;4.10;;;12.10;99.90;;;;;;5097486;28;20491;-77
2024/01/24 04:45:06;;;;;;;8.80;3.17;;;12.10;99.90;;;;;;5094541;28;20439;-77
2024/01/24 04:47:35;;;;;;;9.23;3.20;;;12.10;99.90;;;;;;5093539;28;20501;-77
2024/01/24 04:50:04;;;;;;;10.80;3.37;;;12.10;99.90;;;;;;5093830;28;20502;-78
2024/01/24 04:52:32;;;;;;;8.97;3.10;;;12.10;99.90;;;;;;5094035;28;20500;-77
2024/01/24 04:55:00;;;;;;;14.57;4.20;;;12.00;99.90;;;;;;5093835;28;20444;-75
2024/01/24 04:57:29;;;;;;;11.77;3.37;;;12.00;99.90;;;;;;5095426;28;20466;-77
2024/01/24 04:59:57;;;;;;;9.00;4.73;;;12.00;99.90;;;;;;5094058;28;20539;-78
2024/01/24 05:02:28;;;;;;;13.70;3.87;;;12.00;99.90;;;;;;5096258;28;20461;-77
2024/01/24 05:04:57;;;;;;;12.23;4.30;;;12.00;99.90;;;;;;5094588;28;20478;-77
2024/01/24 05:07:25;;;;;;;8.23;2.97;;;12.00;99.90;;;;;;5097035;28;20425;-77
2024/01/24 05:09:53;;;;;;;10.43;3.40;;;12.00;99.90;;;;;;5096219;28;20852;-78
2024/01/24 05:12:22;;;;;;;12.90;4.00;;;12.00;99.90;;;;;;5096527;28;20550;-76
2024/01/24 05:14:50;;;;;;;13.30;5.20;;;12.00;99.90;;;;;;5095856;28;20818;-77
2024/01/24 05:17:18;;;;;;;13.70;4.27;;;12.00;99.90;;;;;;5098269;28;20460;-79
2024/01/24 05:19:49;;;;;;;10.93;3.60;;;12.00;99.90;;;;;;5095956;28;20453;-77
2024/01/24 05:22:17;;;;;;;17.63;4.80;;;12.00;99.90;;;;;;5096324;28;20521;-78
2024/01/24 05:24:46;;;;;;;11.37;3.83;;;12.00;99.90;;;;;;5096062;28;20546;-80
2024/01/24 05:27:14;;;;;;;12.60;4.73;;;12.00;99.90;;;;;;5096404;28;20448;-79
2024/01/24 05:29:45;;;;;;;17.70;4.67;;;12.00;99.90;;;;;;5097423;28;20424;-79
2024/01/24 05:32:13;;;;;;;12.30;4.47;;;11.90;99.90;;;;;;5095802;28;20560;-77
2024/01/24 05:34:42;;;;;;;12.80;4.50;;;11.90;99.90;;;;;;5096003;28;20432;-77
2024/01/24 05:37:12;;;;;;;15.10;5.00;;;11.90;99.90;;;;;;5095121;28;20444;-78
2024/01/24 05:39:41;;;;;;;11.93;4.47;;;11.80;99.90;;;;;;5096070;28;20487;-80
2024/01/24 05:42:10;;;;;;;13.37;5.30;;;11.80;99.90;;;;;;5097352;28;20468;-81
2024/01/24 05:44:38;;;;;;;19.70;5.80;;;11.70;99.90;;;;;;5095503;28;20580;-81
2024/01/24 05:47:07;;;;;;;14.87;4.80;;;11.60;99.90;;;;;;5095146;28;20487;-80
2024/01/24 05:49:36;;;;;;;7.40;3.13;;;11.40;99.90;;;;;;5095179;28;21006;-80
2024/01/24 05:52:06;;;;;;;12.83;4.50;;;11.20;99.90;;;;;;5094861;28;20472;-79
2024/01/24 05:54:35;;;;;;;14.17;4.87;;;11.00;99.90;;;;;;5096076;28;20774;-79
2024/01/24 05:57:04;;;;;;;16.80;5.40;;;10.90;99.90;;;;;;5095780;28;20433;-78
2024/01/24 05:59:32;;;;;;;17.37;4.00;;;10.80;99.90;;;;;;5092963;28;20472;-79
2024/01/24 06:02:01;;;;;;;16.60;5.17;;;10.70;99.90;;;;;;5093296;28;20464;-77
2024/01/24 06:04:29;;;;;;;13.40;4.33;;;10.60;99.90;;;;;;5094605;28;20506;-78
2024/01/24 06:07:00;;;;;;;21.00;5.87;;;10.60;99.90;;;;;;5093487;28;20804;-76
2024/01/24 06:09:29;;;;;;;14.20;4.90;;;10.60;99.90;;;;;;5094150;28;20490;-77
2024/01/24 06:11:59;;;;;;;16.33;5.20;;;10.60;99.90;;;;;;5094260;28;20468;-79
2024/01/24 06:14:27;;;;;;;14.83;4.17;;;10.60;99.90;;;;;;5093724;28;20448;-79
2024/01/24 06:16:56;;;;;;;15.27;5.17;;;10.60;99.90;;;;;;5095339;28;20929;-77
2024/01/24 06:19:24;;;;;;;17.50;6.07;;;10.60;99.90;;;;;;5092638;28;20502;-76
2024/01/24 06:21:52;;;;;;;16.43;5.30;;;10.60;99.90;;;;;;5093064;28;21001;-76
2024/01/24 06:24:21;;;;;;;14.57;5.00;;;10.60;99.90;;;;;;5093607;28;20543;-77
2024/01/24 06:26:50;;;;;;;15.40;5.20;;;10.60;99.90;;;;;;5093868;28;20807;-77
2024/01/24 06:29:20;;;;;;;16.90;4.97;;;10.60;99.90;;;;;;5092968;28;20493;-76
2024/01/24 06:32:08;;;;;;;22.07;6.60;;;10.60;99.90;;;;;;5093068;28;20697;-77
2024/01/24 06:34:37;;;;;;;15.40;6.37;;;10.60;99.90;;;;;;5093232;28;20987;-77
2024/01/24 06:37:05;;;;;;;21.00;6.70;;;10.60;99.90;;;;;;5094809;28;20450;-77
2024/01/24 06:39:33;;;;;;;19.40;6.23;;;10.60;99.90;;;;;;5093160;28;20571;-77
2024/01/24 06:42:02;;;;;;;21.63;7.70;;;10.60;99.90;;;;;;5095540;28;20452;-79
2024/01/24 06:44:31;;;;;;;22.43;7.77;;;10.60;99.90;;;;;;5095772;28;20475;-79
2024/01/24 06:46:59;;;;;;;22.07;7.70;;;10.60;99.90;;;;;;5094611;28;20456;-76
2024/01/24 06:49:28;;;;;;;19.63;7.33;;;10.60;99.90;;;;;;5093114;28;20452;-77
2024/01/24 06:51:56;;;;;;;20.87;6.60;;;10.60;99.90;;;;;;5092607;28;20479;-77
2024/01/24 06:54:25;;;;;;;21.13;6.90;;;10.60;99.90;;;;;;5093514;28;20448;-78
2024/01/24 06:56:54;;;;;;;20.30;6.53;;;10.60;99.90;;;;;;5093315;28;20447;-78
2024/01/24 06:59:22;;;;;;;22.73;7.50;;;10.60;99.90;;;;;;5092273;28;20882;-78
2024/01/24 07:01:52;;;;;;;18.33;6.77;;;10.70;99.90;;;;;;5093919;28;20495;-77
2024/01/24 07:04:20;;;;;;;23.23;7.53;;;10.70;99.90;;;;;;5092381;28;20456;-77
2024/01/24 07:06:49;;;;;;;28.23;7.60;;;10.70;99.90;;;;;;5092597;28;20475;-77
2024/01/24 07:09:18;;;;;;;21.77;7.07;;;10.70;99.90;;;;;;5093922;28;20452;-77
2024/01/24 07:11:46;;;;;;;21.10;7.53;;;10.70;99.90;;;;;;5099231;28;20467;-78
2024/01/24 07:14:15;;;;;;;22.47;7.67;;;10.80;99.90;;;;;;5098743;28;20478;-78
2024/01/24 07:16:44;;;;;;;18.50;7.10;;;10.80;99.90;;;;;;5098202;28;20638;-77
2024/01/24 07:19:14;;;;;;;16.53;6.70;;;10.80;99.90;;;;;;5097900;28;20813;-81
2024/01/24 07:21:42;;;;;;;19.77;6.53;;;10.80;99.90;;;;;;5097671;28;20475;-78
2024/01/24 07:24:11;;;;;;;22.90;7.40;;;10.80;99.90;;;;;;5097920;28;21009;-78
2024/01/24 07:26:39;;;;;;;24.97;8.20;;;10.80;99.90;;;;;;5099554;28;20838;-78
2024/01/24 07:29:07;;;;;;;24.20;7.03;;;10.80;99.90;;;;;;5096423;28;20451;-78
2024/01/24 07:31:36;;;;;;;20.97;6.37;;;10.90;99.90;;;;;;5097141;28;20506;-77
2024/01/24 07:34:04;;;;;;;20.80;7.40;;;10.90;99.90;;;;;;5096333;28;20448;-78
2024/01/24 07:36:34;;;;;;;23.70;7.90;;;10.90;99.90;;;;;;5096084;28;20543;-77
2024/01/24 07:39:02;;;;;;;22.13;7.83;;;10.90;99.90;;;;;;5095884;28;20556;-79
2024/01/24 07:41:31;;;;;;;18.87;6.77;;;10.90;99.90;;;;;;5095777;28;20497;-77
2024/01/24 07:43:59;;;;;;;20.10;7.20;;;10.90;99.90;;;;;;5095872;28;20556;-78
2024/01/24 07:46:29;;;;;;;21.70;7.10;;;10.90;99.90;;;;;;5097322;28;20456;-77
2024/01/24 07:48:57;;;;;;;17.23;6.73;;;10.90;99.90;;;;;;5095671;28;20527;-76
2024/01/24 07:51:26;;;;;;;25.63;7.80;;;10.90;99.90;;;;;;5095732;28;20456;-77
2024/01/24 07:53:56;;;;;;;22.80;7.10;;;10.90;99.90;;;;;;5097739;28;20539;-79
2024/01/24 07:56:24;;;;;;;18.17;6.33;;;10.90;99.90;;;;;;5098696;28;20433;-79
2024/01/24 07:58:54;;;;;;;18.63;6.40;;;10.90;99.90;;;;;;5096854;28;20842;-76
2024/01/24 08:01:23;;;;;;;24.10;8.90;;;10.90;99.90;;;;;;5096167;28;20440;-79
2024/01/24 08:03:52;;;;;;;24.23;6.40;;;10.90;99.90;;;;;;5098930;28;20479;-78
2024/01/24 08:06:21;;;;;;;15.00;6.40;;;10.90;99.90;;;;;;5096657;28;20444;-80
2024/01/24 08:08:50;;;;;;;24.13;7.80;;;10.90;99.90;;;;;;5096900;28;20444;-79
2024/01/24 08:11:21;;;;;;;20.80;6.97;;;10.90;99.90;;;;;;5096454;28;20835;-79
2024/01/24 08:13:50;;;;;;;21.00;8.07;;;10.90;99.90;;;;;;5096735;28;20856;-79
2024/01/24 08:16:21;;;;;;;19.97;7.60;;;10.90;99.90;;;;;;5096956;28;20448;-80
2024/01/24 08:18:49;;;;;;;20.07;7.53;;;10.90;99.90;;;;;;5096080;28;20451;-79
2024/01/24 08:21:18;;;;;;;23.97;7.20;;;10.90;99.90;;;;;;5097072;28;20486;-78
2024/01/24 08:23:46;;;;;;;15.87;6.80;;;10.90;99.90;;;;;;5094880;28;20487;-78
2024/01/24 08:26:20;;;;;;;24.03;8.27;;;10.90;99.90;;;;;;5095652;28;20503;-77
2024/01/24 08:28:48;;;;;;;20.00;7.40;;;10.90;99.90;;;;;;5097615;28;20933;-77
2024/01/24 08:31:17;;;;;;;20.90;7.30;;;10.90;99.90;;;;;;5098623;28;20436;-79
2024/01/24 08:33:45;;;;;;;20.40;6.60;;;10.90;99.90;;;;;;5097409;28;20476;-82
2024/01/24 08:36:18;;;;;;;20.03;7.20;;;10.90;99.90;;;;;;5098138;28;20440;-78
2024/01/24 08:38:47;;;;;;;26.20;7.97;;;10.90;99.90;;;;;;5099449;28;20436;-78
2024/01/24 08:41:15;;;;;;;21.53;7.77;;;10.90;99.90;;;;;;5097436;28;20505;-78
2024/01/24 08:43:45;;;;;;;21.30;7.47;;;10.90;99.90;;;;;;5096689;28;20460;-78
2024/01/24 08:46:13;;;;;;;21.63;7.67;;;10.90;99.90;;;;;;5097915;28;20543;-79
2024/01/24 08:48:41;;;;;;;20.87;7.40;;;10.90;99.90;;;;;;5095961;28;20898;-77
2024/01/24 08:51:10;;;;;;;22.60;7.43;;;10.90;99.90;;;;;;5095998;28;20445;-78
2024/01/24 08:53:38;;;;;;;20.20;6.67;;;10.90;99.90;;;;;;5096370;28;20558;-78
2024/01/24 08:56:07;;;;;;;24.20;7.77;;;10.90;99.90;;;;;;5096443;28;20444;-78
2024/01/24 08:58:35;;;;;;;24.07;8.77;;;10.90;99.90;;;;;;5095950;28;20491;-79
2024/01/24 09:01:05;;;;;;;21.83;7.30;;;10.90;99.90;;;;;;5096065;28;20469;-80
2024/01/24 09:03:34;;;;;;;21.10;7.77;;;10.90;99.90;;;;;;5096186;28;20550;-78
2024/01/24 09:06:02;;;;;;;22.20;7.50;;;11.00;99.90;;;;;;5096131;28;20889;-78
2024/01/24 09:08:31;;;;;;;20.70;7.30;;;11.00;99.90;;;;;;5096908;28;20811;-77
2024/01/24 09:10:59;;;;;;;18.27;6.80;;;11.00;99.90;;;;;;5095851;28;20535;-78
2024/01/24 09:13:27;;;;;;;20.07;7.57;;;11.00;99.90;;;;;;5097375;28;20474;-80
2024/01/24 09:15:55;;;;;;;18.63;7.43;;;11.00;99.90;;;;;;5095835;28;20887;-79
2024/01/24 09:18:25;;;;;;;23.07;6.73;;;11.00;99.90;;;;;;5095384;28;20975;-79
2024/01/24 09:20:54;;;;;;;19.57;7.37;;;11.00;99.90;;;;;;5095319;28;20482;-78
2024/01/24 09:23:23;;;;;;;22.07;7.40;;;11.10;99.90;;;;;;5096236;28;20488;-77
2024/01/24 09:25:51;;;;;;;21.03;7.17;;;11.10;99.90;;;;;;5095676;28;20455;-81
2024/01/24 09:28:19;;;;;;;21.63;7.60;;;11.00;99.90;;;;;;5098607;28;20424;-80
2024/01/24 09:30:48;;;;;;;26.50;8.80;;;11.10;99.90;;;;;;5096682;28;20468;-79
2024/01/24 09:33:16;;;;;;;25.67;7.20;;;11.10;99.90;;;;;;5095790;28;20476;-79
2024/01/24 09:35:46;;;;;;;22.53;7.43;;;11.00;99.90;;;;;;5096433;28;20519;-79
2024/01/24 09:38:15;;;;;;;15.30;6.23;;;11.00;99.90;;;;;;5095871;28;20436;-80
2024/01/24 09:40:43;;;;;;;17.00;6.67;;;11.10;99.90;;;;;;5096092;28;20475;-78
2024/01/24 09:43:14;;;;;;;25.80;7.87;;;11.10;99.90;;;;;;5098721;28;20479;-79
2024/01/24 09:45:43;;;;;;;21.07;7.53;;;11.10;99.90;;;;;;5105521;28;20443;-79
2024/01/24 09:48:12;;;;;;;19.10;7.37;;;11.10;99.90;;;;;;5102667;28;20892;-80
2024/01/24 09:50:42;;;;;;;18.63;6.60;;;11.10;99.90;;;;;;5099832;28;20492;-79
2024/01/24 09:53:17;;;;;;;18.47;7.33;;;11.10;99.90;;;;;;5099361;28;20453;-79
2024/01/24 09:55:46;;;;;;;19.53;7.47;;;11.10;99.90;;;;;;5096054;28;20443;-77
2024/01/24 09:58:15;;;;;;;21.80;7.63;;;11.10;99.90;;;;;;5095068;28;20867;-77
2024/01/24 10:00:47;;;;;;;18.70;6.77;;;11.10;99.90;;;;;;5094849;28;20479;-80
2024/01/24 10:03:18;;;;;;;22.07;6.87;;;11.10;99.90;;;;;;5094055;28;20466;-78
2024/01/24 10:05:48;;;;;;;19.83;6.67;;;11.10;99.90;;;;;;5094477;28;20514;-79
2024/01/24 10:08:18;;;;;;;21.40;6.90;;;11.10;99.90;;;;;;5094961;28;20468;-78
2024/01/24 10:10:47;;;;;;;25.03;7.50;;;11.10;99.90;;;;;;5094964;28;20440;-80
2024/01/24 10:13:15;;;;;;;19.67;7.50;;;11.10;99.90;;;;;;5094491;28;20464;-77
2024/01/24 10:15:44;;;;;;;18.50;6.70;;;11.10;99.90;;;;;;5094303;28;20486;-77
2024/01/24 10:18:12;;;;;;;19.23;7.10;;;11.10;99.90;;;;;;5093620;28;20452;-79
2024/01/24 10:20:42;;;;;;;24.53;7.60;;;11.10;99.90;;;;;;5093685;28;20465;-76
2024/01/24 10:23:22;;;;;;;20.10;7.40;;;11.10;99.90;;;;;;5096132;28;20604;-79
2024/01/24 10:25:51;;;;;;;22.50;7.17;;;11.10;99.90;;;;;;5098699;28;20417;-81
2024/01/24 10:28:19;;;;;;;16.93;7.17;;;11.10;99.90;;;;;;5096160;28;20447;-77
2024/01/24 10:30:48;;;;;;;19.20;6.53;;;11.10;99.90;;;;;;5095875;28;20444;-77
2024/01/24 10:33:17;;;;;;;19.33;6.90;;;11.10;99.90;;;;;;5097070;28;20503;-78
2024/01/24 10:35:47;;;;;;;17.57;6.83;;;11.10;99.90;;;;;;5096574;28;20499;-79
2024/01/24 10:38:23;;;;;;;19.47;6.97;;;11.10;99.90;;;;;;5094862;28;20459;-81
2024/01/24 10:40:58;;;;;;;23.73;8.20;;;11.20;99.90;;;;;;5096039;28;20452;-80
2024/01/24 10:43:27;;;;;;;16.97;7.07;;;11.20;99.90;;;;;;5095651;28;20463;-75
2024/01/24 10:45:56;;;;;;;17.17;7.03;;;11.10;99.90;;;;;;5095554;28;20790;-78
2024/01/24 10:48:25;;;;;;;16.93;7.50;;;11.20;99.90;;;;;;5099145;28;20945;-79
2024/01/24 10:50:57;;;;;;;21.93;8.13;;;11.20;99.90;;;;;;5099138;28;20813;-77
2024/01/24 10:53:29;;;;;;;21.90;7.63;;;11.10;99.90;;;;;;5097826;28;20472;-79
2024/01/24 10:55:58;;;;;;;22.00;6.60;;;11.10;99.90;;;;;;5099992;28;20789;-79
2024/01/24 10:58:29;;;;;;;16.27;6.60;;;11.10;99.90;;;;;;5098805;28;20436;-78
2024/01/24 11:00:59;;;;;;;23.50;7.80;;;11.20;99.90;;;;;;5097501;28;20452;-79
2024/01/24 11:03:27;;;;;;;18.43;6.40;;;11.20;99.90;;;;;;5098782;28;20563;-77
2024/01/24 11:06:00;;;;;;;18.17;7.33;;;11.20;99.90;;;;;;5098629;28;20464;-79
2024/01/24 11:08:35;;;;;;;18.63;6.90;;;11.10;99.90;;;;;;5096702;28;20498;-78
2024/01/24 11:11:17;;;;;;;21.00;7.80;;;11.20;99.90;;;;;;5096862;28;20451;-77
2024/01/24 11:13:46;;;;;;;21.17;6.77;;;11.10;99.90;;;;;;5096545;28;20876;-76
2024/01/24 11:16:29;;;;;;;14.43;7.00;;;11.10;99.90;;;;;;5099291;28;20797;-79
2024/01/24 11:18:59;;;;;;;20.90;6.97;;;11.10;99.90;;;;;;5096368;28;20944;-79
2024/01/24 11:21:29;;;;;;;18.03;7.17;;;11.10;99.90;;;;;;5096019;28;20463;-77
2024/01/24 11:24:02;;;;;;;19.27;7.43;;;11.10;99.90;;;;;;5098102;28;20507;-78
2024/01/24 11:26:49;;;;;;;18.60;7.00;;;11.10;99.90;;;;;;5096048;28;20451;-77
2024/01/24 11:29:18;;;;;;;18.47;6.93;;;11.10;99.90;;;;;;5098309;28;20420;-77
2024/01/24 11:31:47;;;;;;;20.50;7.07;;;11.10;99.90;;;;;;5096514;28;20472;-78
2024/01/24 11:34:16;;;;;;;18.80;5.90;;;11.10;99.90;;;;;;5098106;28;20455;-79
2024/01/24 11:36:48;;;;;;;20.13;6.20;;;11.10;99.90;;;;;;5097407;28;20458;-79
2024/01/24 11:39:38;;;;;;;14.80;6.77;;;11.00;99.90;;;;;;5100231;28;20459;-79
2024/01/24 11:42:36;;;;;;;19.47;7.13;;;11.10;99.90;;;;;;5098264;28;20483;-79
2024/01/24 11:45:16;;;;;;;16.40;7.30;;;11.10;99.90;;;;;;5098597;28;20429;-77
2024/01/24 11:47:44;;;;;;;19.07;7.27;;;11.10;99.90;;;;;;5097223;28;20512;-78
2024/01/24 11:50:14;;;;;;;22.20;6.53;;;11.10;99.90;;;;;;5095786;28;20857;-78
2024/01/24 11:52:45;;;;;;;18.50;7.03;;;11.10;99.90;;;;;;5097085;28;20463;-76
2024/01/24 11:55:15;;;;;;;14.10;5.83;;;11.10;99.90;;;;;;5097544;28;20439;-76
2024/01/24 11:57:43;;;;;;;17.63;6.00;;;11.10;99.90;;;;;;5094060;28;20957;-77
2024/01/24 12:00:14;;;;;;;22.77;6.77;;;11.10;99.90;;;;;;5096765;28;20443;-79
2024/01/24 12:02:43;;;;;;;16.47;5.83;;;11.10;99.90;;;;;;5097953;28;20479;-79
2024/01/24 12:05:14;;;;;;;19.17;6.70;;;11.10;99.90;;;;;;5102123;28;20433;-78
2024/01/24 12:07:42;;;;;;;18.80;7.70;;;11.10;99.90;;;;;;5098712;28;20453;-78
2024/01/24 12:10:11;;;;;;;16.73;5.67;;;11.10;99.90;;;;;;5096960;28;20435;-76
2024/01/24 12:12:41;;;;;;;17.93;6.40;;;11.10;99.90;;;;;;5097847;28;20471;-78
2024/01/24 12:15:11;;;;;;;16.50;5.30;;;11.00;99.90;;;;;;5097861;28;20456;-78
2024/01/24 12:17:40;;;;;;;16.80;6.10;;;11.10;99.90;;;;;;5097467;28;20487;-79
2024/01/24 12:20:16;;;;;;;13.53;6.00;;;11.10;99.90;;;;;;5096413;28;20445;-79
2024/01/24 12:22:45;;;;;;;18.93;6.00;;;11.10;99.90;;;;;;5096401;28;20475;-77
2024/01/24 12:25:13;;;;;;;18.70;6.67;;;11.10;99.90;;;;;;5096535;28;20539;-79
2024/01/24 12:27:43;;;;;;;16.23;5.70;;;11.10;99.90;;;;;;5096041;28;20447;-80
2024/01/24 12:30:13;;;;;;;18.50;6.10;;;11.10;99.90;;;;;;5095891;28;20520;-77
2024/01/24 12:32:43;;;;;;;14.13;6.03;;;11.10;99.90;;;;;;5095096;28;20469;-79
2024/01/24 12:35:12;;;;;;;18.97;5.40;;;11.10;99.90;;;;;;5096411;28;20436;-77
2024/01/24 12:37:42;;;;;;;21.50;6.47;;;11.10;99.90;;;;;;5094776;28;20452;-78
2024/01/24 12:40:12;;;;;;;14.67;6.40;;;11.10;99.90;;;;;;5095318;28;20448;-77
2024/01/24 12:42:41;;;;;;;17.03;5.90;;;11.10;99.90;;;;;;5098414;28;20563;-79
2024/01/24 12:45:15;;;;;;;18.10;5.77;;;11.00;99.90;;;;;;5096133;28;20821;-78
2024/01/24 12:47:44;;;;;;;16.33;6.73;;;11.10;99.90;;;;;;5096435;28;20466;-79
2024/01/24 12:50:12;;;;;;;19.00;6.57;;;11.10;99.90;;;;;;5097881;28;20799;-77